sensor_id;sensor_type;location;lat;lon;timestamp;temperature;humidity
10386;DHT22;34307;51.332;12.334;2023-03-09T05:36:30;0.50;99.90
10386;DHT22;34307;51.332;12.334;2023-03-09T05:38:58;0.50;99.90
10386;DHT22;34307;51.332;12.334;2023-03-09T05:41:26;0.50;99.90
10386;DHT22;34307;51.332;12.334;2023-03-09T05:43:54;0.50;99.90
10386;DHT22;34307;51.332;12.334;2023-03-09T05:46:22;0.60;99.90
10386;DHT22;34307;51.332;12.334;2023-03-09T05:48:50;0.50;99.90
10386;DHT22;34307;51.332;12.334;2023-03-09T05:51:18;0.50;99.90
10386;DHT22;34307;51.332;12.334;2023-03-09T05:53:47;0.50;99.90
10386;DHT22;34307;51.332;12.334;2023-03-09T05:56:15;0.50;99.90
10386;DHT22;34307;51.332;12.334;2023-03-09T05:58:43;0.50;99.90
10386;DHT22;34307;51.332;12.334;2023-03-09T06:01:17;0.50;99.90
10386;DHT22;34307;51.332;12.334;2023-03-09T06:03:45;0.50;99.90
10386;DHT22;34307;51.332;12.334;2023-03-09T06:06:13;0.50;99.90
10386;DHT22;34307;51.332;12.334;2023-03-09T06:08:41;0.40;99.90
10386;DHT22;34307;51.332;12.334;2023-03-09T11:13:58;3.10;99.90
10386;DHT22;34307;51.332;12.334;2023-03-09T11:16:28;3.10;99.90
10386;DHT22;34307;51.332;12.334;2023-03-09T11:19:08;3.40;99.90
10386;DHT22;34307;51.332;12.334;2023-03-09T11:21:38;3.50;99.90
10386;DHT22;34307;51.332;12.334;2023-03-09T11:31:36;3.60;99.90
10386;DHT22;34307;51.332;12.334;2023-03-09T11:34:06;3.60;99.90
10386;DHT22;34307;51.332;12.334;2023-03-09T11:43:59;3.60;99.90
10386;DHT22;34307;51.332;12.334;2023-03-09T11:46:28;3.30;99.90
10386;DHT22;34307;51.332;12.334;2023-03-09T11:49:06;3.50;99.90
10386;DHT22;34307;51.332;12.334;2023-03-09T11:51:37;3.80;99.90
10386;DHT22;34307;51.332;12.334;2023-03-09T11:54:16;4.00;99.90
10386;DHT22;34307;51.332;12.334;2023-03-09T12:11:36;3.80;99.90
10386;DHT22;34307;51.332;12.334;2023-03-09T12:14:13;3.60;99.90
10386;DHT22;34307;51.332;12.334;2023-03-09T12:16:48;3.80;99.90
10386;DHT22;34307;51.332;12.334;2023-03-09T12:19:19;4.10;99.90
10386;DHT22;34307;51.332;12.334;2023-03-09T12:29:21;3.90;99.90
10386;DHT22;34307;51.332;12.334;2023-03-09T12:32:10;4.10;99.90
10386;DHT22;34307;51.332;12.334;2023-03-09T12:34:44;4.20;99.90
10386;DHT22;34307;51.332;12.334;2023-03-09T12:37:40;4.50;99.90
10386;DHT22;34307;51.332;12.334;2023-03-09T13:05:12;4.60;99.90
10386;DHT22;34307;51.332;12.334;2023-03-09T13:53:02;3.80;99.90
10386;DHT22;34307;51.332;12.334;2023-03-09T13:55:31;3.80;99.90
10386;DHT22;34307;51.332;12.334;2023-03-09T13:58:12;3.70;99.90
10386;DHT22;34307;51.332;12.334;2023-03-09T16:56:07;3.30;99.90
10386;DHT22;34307;51.332;12.334;2023-03-09T16:58:36;3.20;99.90
10386;DHT22;34307;51.332;12.334;2023-03-09T17:01:11;3.20;99.90
10386;DHT22;34307;51.332;12.334;2023-03-09T17:03:39;3.30;99.90
10386;DHT22;34307;51.332;12.334;2023-03-09T17:06:11;3.30;99.90
10386;DHT22;34307;51.332;12.334;2023-03-09T17:08:39;3.20;99.90
10386;DHT22;34307;51.332;12.334;2023-03-09T17:11:13;3.20;99.90
10386;DHT22;34307;51.332;12.334;2023-03-09T17:13:42;3.20;99.90
10386;DHT22;34307;51.332;12.334;2023-03-09T17:16:11;3.20;99.90
10386;DHT22;34307;51.332;12.334;2023-03-09T17:18:39;3.20;99.90
10386;DHT22;34307;51.332;12.334;2023-03-09T17:21:08;3.20;99.90
10386;DHT22;34307;51.332;12.334;2023-03-09T17:23:36;3.20;99.90
10386;DHT22;34307;51.332;12.334;2023-03-09T17:26:05;3.20;99.90
10386;DHT22;34307;51.332;12.334;2023-03-09T17:28:35;3.10;99.90
10386;DHT22;34307;51.332;12.334;2023-03-09T17:31:09;3.10;99.90
10386;DHT22;34307;51.332;12.334;2023-03-09T17:33:37;3.10;99.90
10386;DHT22;34307;51.332;12.334;2023-03-09T17:36:05;3.10;99.90
10386;DHT22;34307;51.332;12.334;2023-03-09T17:38:34;3.20;99.90
10386;DHT22;34307;51.332;12.334;2023-03-09T17:41:02;3.20;99.90
10386;DHT22;34307;51.332;12.334;2023-03-09T17:43:35;3.10;99.90
10386;DHT22;34307;51.332;12.334;2023-03-09T17:46:06;3.10;99.90
10386;DHT22;34307;51.332;12.334;2023-03-09T17:48:36;3.10;99.90
10386;DHT22;34307;51.332;12.334;2023-03-09T17:51:07;3.10;99.90
10386;DHT22;34307;51.332;12.334;2023-03-09T17:53:35;3.10;99.90
10386;DHT22;34307;51.332;12.334;2023-03-09T17:56:04;3.00;99.90
10386;DHT22;34307;51.332;12.334;2023-03-09T17:58:32;3.10;99.90
